Messancy, Belgium
Current Conditions -  °F | °C
As of 11:20 PM on Friday 31 Oct 2014 (Local Time) from ELLX Reporting Station
Clear Clear  
Wind Chill: 52°   Ceiling: Unl
Heat Index: 52°   Visibility: 3mi
Dew Point: 50°   Wind: 2mph
Humidity: 94%   Direction: 130°SE
Pressure: 30.21"   Gusts: NA
Location:  49.59°N, 5.82°E
Report Text: ELLX 312220Z 13002KT 5000 R24/0375V0900U NSC 11/10 Q1023 NOSIG
Loading
Personal Weather Stations






























Interactive Weather Map
Tropical Storm Tracking
New forecast layout! Learn more

10-Day Weather Forecast

Advertisements
Track Severe Weather on mobile